PLN weather

Pellston Regional Airport of Emmet County Airport
Pellston, Michigan, United States

Public forecast

Using degrees Fahrenheit for public forecast. Weather courtesy of forecast.io.

Current aviation weather report (METAR) for Pellston Regional Airport of Emmet County Airport

Retrieved 2019/10/18 22:54 UTC (12 minutes ago):

KPLN 182254Z AUTO 02004KT 10SM CLR 07/04 A2999 RMK AO2 SLP161 T00720039

Aviation forecast (TAF) for Pellston Regional Airport of Emmet County Airport

Retrieved 2019/10/18 18:22 UTC (5 hours ago):

TAF KPLN 181720Z 1818/1918 00000KT P6SM BKN030 FM182000 VRB04KT P6SM SCT035 FM190300 15005KT P6SM SCT250 FM191400 18006KT P6SM SCT200 FM191700 18007KT P6SM BKN180